createdAt,value
2023-02-15T00:02:03.787Z,99813.28
2023-02-15T00:07:06.309Z,99792.06
2023-02-15T00:12:10.361Z,99811.75
2023-02-15T00:17:13.187Z,99823.25
2023-02-15T00:22:15.793Z,99823.50
2023-02-15T00:27:18.394Z,99819.69
2023-02-15T00:32:21.041Z,99825.44
2023-02-15T00:37:23.649Z,99820.44
2023-02-15T00:42:26.349Z,99815.78
2023-02-15T00:47:29.075Z,99790.53
2023-02-15T00:52:31.756Z,99839.78
2023-02-15T00:57:34.384Z,99818.44
2023-02-15T01:02:36.989Z,99830.25
2023-02-15T01:07:39.704Z,99840.16
2023-02-15T01:12:42.378Z,99835.78
2023-02-15T01:17:50.672Z,99840.34
2023-02-15T01:22:54.524Z,99854.50
2023-02-15T01:27:57.496Z,99839.94
2023-02-15T01:33:01.878Z,99847.09
2023-02-15T01:38:07.049Z,99846.44
2023-02-15T01:43:13.508Z,99847.41
2023-02-15T01:48:27.345Z,99860.84
2023-02-15T01:53:38.017Z,99861.00
2023-02-15T01:58:44.277Z,99855.13
2023-02-15T02:04:08.226Z,99866.25
2023-02-15T02:09:11.356Z,99837.38
2023-02-15T02:14:14.201Z,99854.97
2023-02-15T02:19:42.401Z,99856.84
2023-02-15T02:25:07.606Z,99858.16
2023-02-15T02:30:26.936Z,99875.16
2023-02-15T02:35:42.262Z,99866.75
2023-02-15T02:40:51.129Z,99877.00
2023-02-15T02:46:04.228Z,99848.16
2023-02-15T02:51:07.589Z,99869.28
2023-02-15T02:56:48.508Z,99885.09
2023-02-15T03:02:08.982Z,99893.88
2023-02-15T03:07:23.011Z,99863.72
2023-02-15T03:12:34.338Z,99872.03
2023-02-15T03:17:41.695Z,99900.53
2023-02-15T03:22:52.175Z,99905.06
2023-02-15T03:28:00.742Z,99876.75
2023-02-15T03:33:05.686Z,99912.88
2023-02-15T03:38:10.116Z,99905.56
2023-02-15T03:43:21.663Z,99905.19
2023-02-15T03:48:30.820Z,99903.28
2023-02-15T03:53:33.638Z,99905.63
2023-02-15T03:58:54.789Z,99907.88
2023-02-15T04:04:03.194Z,99913.47
2023-02-15T04:09:24.400Z,99906.66
2023-02-15T04:14:45.529Z,99903.81
2023-02-15T04:20:06.565Z,99868.16
2023-02-15T04:25:15.198Z,99907.16
2023-02-15T04:30:20.014Z,99915.56
2023-02-15T04:35:23.491Z,99902.41
2023-02-15T04:40:26.143Z,99939.66
2023-02-15T04:45:28.903Z,99909.97
2023-02-15T04:50:31.478Z,99928.88
2023-02-15T04:55:34.133Z,99923.81
2023-02-15T05:00:36.722Z,99909.28
2023-02-15T05:05:39.382Z,99925.69
2023-02-15T05:10:42.054Z,99929.09
2023-02-15T05:15:50.710Z,99945.09
2023-02-15T05:20:53.327Z,99927.47
2023-02-15T05:26:14.461Z,99933.06
2023-02-15T05:31:20.912Z,99952.31
2023-02-15T05:36:24.182Z,99963.84
2023-02-15T05:41:26.808Z,99952.56
2023-02-15T05:46:29.448Z,99958.53
2023-02-15T05:51:32.106Z,99970.34
2023-02-15T05:56:34.936Z,99960.38
2023-02-15T06:01:37.632Z,99971.66
2023-02-15T06:06:40.362Z,99936.16
2023-02-15T06:11:43.068Z,99937.47
2023-02-15T06:16:45.667Z,99965.09
2023-02-15T06:21:48.411Z,99966.16
2023-02-15T06:26:50.996Z,99961.47
2023-02-15T06:31:55.181Z,99967.56
2023-02-15T06:36:58.096Z,99956.63
2023-02-15T06:42:00.928Z,99994.66
2023-02-15T06:47:03.545Z,99986.44
2023-02-15T06:52:06.282Z,99982.81
2023-02-15T06:57:10.616Z,99996.38
2023-02-15T07:02:13.955Z,99994.00
2023-02-15T07:07:16.570Z,99984.41
2023-02-15T07:12:38.158Z,99981.50
2023-02-15T07:17:40.785Z,99963.22
2023-02-15T07:22:44.086Z,99995.44
2023-02-15T07:27:46.810Z,99995.50
2023-02-15T07:33:07.903Z,99982.16
2023-02-15T07:38:10.452Z,99999.31
2023-02-15T07:43:13.900Z,99998.94
2023-02-15T07:48:16.522Z,99995.19
2023-02-15T07:53:19.269Z,99993.16
2023-02-15T07:58:22.026Z,99981.19
2023-02-15T08:03:27.836Z,100004.06
2023-02-15T08:08:31.045Z,100004.97
2023-02-15T08:13:33.771Z,100010.44
2023-02-15T08:18:36.406Z,100002.13
2023-02-15T08:23:39.013Z,100005.31
2023-02-15T08:28:42.810Z,100028.63
2023-02-15T08:33:46.707Z,100026.16
2023-02-15T08:38:49.721Z,100007.78
2023-02-15T08:43:57.566Z,100028.63
2023-02-15T08:49:00.478Z,100039.09
2023-02-15T08:54:11.614Z,100027.31
2023-02-15T08:59:20.771Z,100046.06
2023-02-15T09:04:23.804Z,100012.53
2023-02-15T09:09:26.342Z,100051.28
2023-02-15T09:14:28.991Z,100055.56
2023-02-15T09:19:31.485Z,100049.84
2023-02-15T09:24:35.174Z,100019.72
2023-02-15T09:29:37.760Z,100016.59
2023-02-15T09:34:40.572Z,100059.00
2023-02-15T09:39:44.588Z,100057.66
2023-02-15T09:45:09.127Z,100060.00
2023-02-15T09:50:36.613Z,100059.59
2023-02-15T09:55:58.618Z,100065.88
2023-02-15T10:01:21.903Z,100071.16
2023-02-15T10:06:34.620Z,100074.56
2023-02-15T10:11:58.535Z,100054.69
2023-02-15T10:17:16.377Z,100088.13
2023-02-15T10:22:47.950Z,100089.09
2023-02-15T10:27:51.254Z,100065.19
2023-02-15T10:33:05.318Z,100077.22
2023-02-15T10:38:49.240Z,100089.97
2023-02-15T10:44:32.937Z,100093.75
2023-02-15T10:49:47.372Z,100102.38
2023-02-15T10:55:04.867Z,100101.22
2023-02-15T11:00:46.849Z,100124.56
2023-02-15T11:05:55.941Z,100133.34
2023-02-15T11:11:07.666Z,100125.00
2023-02-15T11:16:31.268Z,100118.25
2023-02-15T11:21:51.127Z,100101.16
2023-02-15T11:27:07.010Z,100138.28
2023-02-15T11:32:21.414Z,100137.56
2023-02-15T11:38:02.151Z,100150.06
2023-02-15T11:43:11.962Z,100124.06
2023-02-15T11:48:16.250Z,100159.50
2023-02-15T11:53:28.710Z,100152.47
2023-02-15T11:58:37.421Z,100160.81
2023-02-15T12:03:52.740Z,100183.28
2023-02-15T12:09:08.622Z,100169.22
2023-02-15T12:14:16.835Z,100176.25
2023-02-15T12:19:37.552Z,100180.03
2023-02-15T12:24:48.501Z,100163.41
2023-02-15T12:30:27.106Z,100165.84
2023-02-15T12:35:33.021Z,100202.03
2023-02-15T12:40:36.679Z,100206.06
2023-02-15T12:45:39.478Z,100199.91
2023-02-15T12:50:43.860Z,100216.75
2023-02-15T12:56:08.300Z,100208.22
2023-02-15T13:01:22.446Z,100209.06
2023-02-15T13:06:26.501Z,100230.47
2023-02-15T13:11:35.865Z,100229.13
2023-02-15T13:16:40.792Z,100242.03
2023-02-15T13:21:47.332Z,100243.28
2023-02-15T13:26:50.802Z,100235.59
2023-02-15T13:31:55.093Z,100235.44
2023-02-15T13:37:17.651Z,100249.53
2023-02-15T13:42:26.037Z,100255.09
2023-02-15T13:47:50.344Z,100263.09
2023-02-15T13:53:13.753Z,100283.41
2023-02-15T13:58:47.685Z,100271.28
2023-02-15T14:04:12.045Z,100276.84
2023-02-15T14:09:28.029Z,100260.97
2023-02-15T14:14:53.154Z,100274.06
2023-02-15T14:20:20.994Z,100273.50
2023-02-15T14:25:38.443Z,100284.22
2023-02-15T14:30:46.153Z,100300.03
2023-02-15T14:35:49.464Z,100300.28
2023-02-15T14:41:10.407Z,100298.63
2023-02-15T14:46:35.348Z,100309.69
2023-02-15T14:51:44.145Z,100314.63
2023-02-15T14:56:48.334Z,100317.78
2023-02-15T15:02:00.155Z,100325.00
2023-02-15T15:07:07.946Z,100323.34
2023-02-15T15:12:22.819Z,100331.53
2023-02-15T15:17:34.761Z,100328.44
2023-02-15T15:22:37.815Z,100317.69
2023-02-15T15:27:46.831Z,100340.56
2023-02-15T15:32:55.785Z,100339.34
2023-02-15T15:38:16.419Z,100351.03
2023-02-15T15:43:35.092Z,100348.81
2023-02-15T15:48:41.445Z,100353.56
2023-02-15T15:53:50.040Z,100364.88
2023-02-15T15:59:01.486Z,100338.34
2023-02-15T16:04:04.329Z,100362.88
2023-02-15T16:09:19.141Z,100368.84
2023-02-15T16:14:31.385Z,100383.44
2023-02-15T16:19:40.255Z,100390.66
2023-02-15T16:24:57.031Z,100390.59
2023-02-15T16:29:59.807Z,100392.09
